Volente, Texas
Current Conditions -  °F | °C
As of 10:15 AM on Thursday 23 Oct 2014 (Local Time) from KRYW Reporting Station
Scattered Clouds Scattered Clouds  
Wind Chill: 21°   Ceiling: Unl
Heat Index: 21°   Visibility: 10mi
Dew Point: 16°   Wind: 0mph
Humidity: 71%   Direction: NA
Pressure: 30.17"   Gusts: NA
Location:  30.558°N, 97.9247°W
Report Text: KRYW 231515Z AUTO 00000KT 10SM SCT110 21/16 A3017 RMK AO2 T02140160
Loading
Personal Weather Stations






























Interactive Weather Map
Tropical Storm Tracking
New forecast layout! Learn more

10-Day Weather Forecast

Advertisements
Track Severe Weather on mobile